TimeEDT,TemperatureF,Dew PointF,Humidity,Sea Level PressureIn,VisibilityMPH,Wind Direction,Wind SpeedMPH,Gust SpeedMPH,PrecipitationIn,Events,Conditions,WindDirDegrees,DateUTC
12:51 AM,54.0,44.1,69,30.09,10.0,Calm,Calm,-,N/A,,Clear,0,2013-09-15 04:51:00
1:51 AM,51.1,45.0,80,30.11,10.0,Calm,Calm,-,N/A,,Clear,0,2013-09-15 05:51:00
2:51 AM,46.9,44.1,90,30.11,10.0,Calm,Calm,-,N/A,,Clear,0,2013-09-15 06:51:00
3:51 AM,46.9,44.1,90,30.12,10.0,Calm,Calm,-,N/A,,Clear,0,2013-09-15 07:51:00
4:51 AM,45.0,43.0,93,30.13,10.0,Calm,Calm,-,N/A,,Clear,0,2013-09-15 08:51:00
5:51 AM,45.0,42.1,90,30.14,10.0,Calm,Calm,-,N/A,,Clear,0,2013-09-15 09:51:00
6:51 AM,44.1,42.1,93,30.16,10.0,West,3.5,-,N/A,,Scattered Clouds,270,2013-09-15 10:51:00
7:51 AM,52.0,46.0,80,30.17,10.0,Calm,Calm,-,N/A,,Mostly Cloudy,0,2013-09-15 11:51:00
8:51 AM,55.0,45.0,69,30.17,10.0,Calm,Calm,-,N/A,,Mostly Cloudy,0,2013-09-15 12:51:00
9:51 AM,59.0,45.0,60,30.19,10.0,Calm,Calm,-,N/A,,Scattered Clouds,0,2013-09-15 13:51:00
10:51 AM,63.0,45.0,52,30.19,10.0,North,4.6,-,N/A,,Mostly Cloudy,350,2013-09-15 14:51:00
11:51 AM,64.9,45.0,48,30.17,10.0,SW,5.8,-,N/A,,Mostly Cloudy,230,2013-09-15 15:51:00
12:51 PM,66.9,45.0,45,30.15,10.0,Variable,5.8,-,N/A,,Mostly Cloudy,0,2013-09-15 16:51:00
1:51 PM,66.9,45.0,45,30.13,10.0,SE,9.2,-,N/A,,Mostly Cloudy,140,2013-09-15 17:51:00
2:51 PM,68.0,46.0,45,30.11,10.0,SSE,5.8,-,N/A,,Mostly Cloudy,150,2013-09-15 18:51:00
3:51 PM,70.0,46.0,42,30.09,10.0,South,6.9,-,N/A,,Mostly Cloudy,190,2013-09-15 19:51:00
4:51 PM,70.0,46.9,44,30.07,10.0,South,8.1,-,N/A,,Mostly Cloudy,180,2013-09-15 20:51:00
5:51 PM,69.1,48.9,49,30.07,10.0,SSW,6.9,-,N/A,,Mostly Cloudy,210,2013-09-15 21:51:00
6:51 PM,64.9,48.9,56,30.07,10.0,SW,9.2,-,N/A,,Mostly Cloudy,220,2013-09-15 22:51:00
7:51 PM,63.0,48.9,60,30.07,10.0,SW,6.9,-,N/A,,Mostly Cloudy,230,2013-09-15 23:51:00
8:51 PM,60.1,50.0,69,30.08,10.0,South,4.6,-,N/A,,Mostly Cloudy,170,2013-09-16 00:51:00
9:51 PM,57.0,50.0,77,30.08,10.0,South,4.6,-,N/A,,Mostly Cloudy,170,2013-09-16 01:51:00
10:51 PM,57.9,50.0,75,30.08,10.0,South,6.9,-,N/A,,Mostly Cloudy,190,2013-09-16 02:51:00
11:51 PM,57.0,50.0,77,30.07,10.0,SSW,3.5,-,N/A,,Mostly Cloudy,210,2013-09-16 03:51:00